Aviation Digital Data Service (ADDS)

Output produced by TAFs form (1547 UTC 23 August 2017)
found at http://aviationweather.gov/adds/tafs/
 
KAEG 231130Z 2312/2412 04007KT P6SM SCT080 BKN130 
     FM231600 12006KT P6SM SCT090 SCT150 
     FM232000 17008KT P6SM SCT080 
     FM232300 23010KT P6SM VCTS BKN080CB 
     FM240300 21007KT P6SM VCSH BKN100